<?xml version="1.0" encoding="UTF-8" standalone="no" ?>
<gpx xmlns="http://www.topografix.com/GPX/1/1" xmlns:xsi="http://www.w3.org/2001/XMLSchema-instance" xsi:schemaLocation="http://www.topografix.com/GPX/1/1 http://www.topografix.com/GPX/1/1/gpx.xsd" version="1.1" creator="VisuGPX - https://www.visugpx.com">
  <metadata>
    <name>À la confluence du Thouet et de la Dive à Brézé</name>
    <desc><![CDATA[1h de Tours]]></desc>
  </metadata>
  <wpt lat="47.16857" lon="-0.07362">
    <ele>29</ele>
    <name><![CDATA[ Stationnement au Moulin de Baffou  ]]></name>
  </wpt>
  <wpt lat="47.17375" lon="-0.08231">
    <ele>29</ele>
    <name><![CDATA[Barrière de la voie de chemin de fer]]></name>
  </wpt>
  <wpt lat="47.18734" lon="-0.0899">
    <ele>28</ele>
    <name><![CDATA[Pont du]]></name>
  </wpt>
  <wpt lat="47.19731" lon="-0.08102">
    <ele>34</ele>
    <name><![CDATA[Passerelle]]></name>
  </wpt>
  <wpt lat="47.19989" lon="-0.08167">
    <ele>34</ele>
    <name><![CDATA[Chemin à droite]]></name>
  </wpt>
  <wpt lat="47.1982" lon="-0.07948">
    <ele>47</ele>
    <name><![CDATA[Route à droite]]></name>
  </wpt>
  <wpt lat="47.19334" lon="-0.07792">
    <ele>28</ele>
    <name><![CDATA[Chemin des Ruaux]]></name>
  </wpt>
  <wpt lat="47.18319" lon="-0.08284">
    <ele>31</ele>
    <name><![CDATA[Traversée de la D162]]></name>
  </wpt>
  <wpt lat="47.18166" lon="-0.07196">
    <ele>37</ele>
    <name><![CDATA[Le bois de Samoussay]]></name>
  </wpt>
  <wpt lat="47.17777" lon="-0.07076">
    <ele>41</ele>
    <name><![CDATA[Croisement]]></name>
  </wpt>
  <wpt lat="47.17008" lon="-0.07026">
    <ele>39</ele>
    <name><![CDATA[À droite vers le point de départ]]></name>
  </wpt>
  <wpt lat="47.16859" lon="-0.07361">
    <ele>29</ele>
    <name><![CDATA[ Stationnement au Moulin de Baffou  ]]></name>
  </wpt>
  <trk>
    <name><![CDATA[À la confluence du Thouet et de la Dive à Brézé]]></name>
    <trkseg>
      <trkpt lat="47.16857" lon="-0.07362">
        <ele>29</ele>
        <time>2021-02-20T11:33:03+01:00</time>
      </trkpt>
      <trkpt lat="47.16858" lon="-0.07364">
        <ele>29</ele>
        <time>2021-02-20T11:33:08+01:00</time>
      </trkpt>
      <trkpt lat="47.16876" lon="-0.07393">
        <ele>28</ele>
        <time>2021-02-20T11:33:13+01:00</time>
      </trkpt>
      <trkpt lat="47.16893" lon="-0.07429">
        <ele>27</ele>
        <time>2021-02-20T11:33:18+01:00</time>
      </trkpt>
      <trkpt lat="47.16938" lon="-0.07531">
        <ele>28</ele>
        <time>2021-02-20T11:33:23+01:00</time>
      </trkpt>
      <trkpt lat="47.16981" lon="-0.0763">
        <ele>29</ele>
        <time>2021-02-20T11:33:28+01:00</time>
      </trkpt>
      <trkpt lat="47.1706" lon="-0.07798">
        <ele>28</ele>
        <time>2021-02-20T11:33:33+01:00</time>
      </trkpt>
      <trkpt lat="47.17167" lon="-0.0794">
        <ele>27</ele>
        <time>2021-02-20T11:33:38+01:00</time>
      </trkpt>
      <trkpt lat="47.1722" lon="-0.0801">
        <ele>27</ele>
        <time>2021-02-20T11:33:43+01:00</time>
      </trkpt>
      <trkpt lat="47.1726" lon="-0.0807">
        <ele>28</ele>
        <time>2021-02-20T11:33:48+01:00</time>
      </trkpt>
      <trkpt lat="47.1727" lon="-0.08081">
        <ele>28</ele>
        <time>2021-02-20T11:33:53+01:00</time>
      </trkpt>
      <trkpt lat="47.17361" lon="-0.08206">
        <ele>30</ele>
        <time>2021-02-20T11:33:58+01:00</time>
      </trkpt>
      <trkpt lat="47.17375" lon="-0.08231">
        <ele>29</ele>
        <time>2021-02-20T11:34:03+01:00</time>
      </trkpt>
      <trkpt lat="47.17375" lon="-0.08231">
        <ele>29</ele>
        <time>2021-02-20T11:34:08+01:00</time>
      </trkpt>
      <trkpt lat="47.17394" lon="-0.08251">
        <ele>28</ele>
        <time>2021-02-20T11:34:13+01:00</time>
      </trkpt>
      <trkpt lat="47.17397" lon="-0.08253">
        <ele>28</ele>
        <time>2021-02-20T11:34:18+01:00</time>
      </trkpt>
      <trkpt lat="47.17427" lon="-0.08285">
        <ele>27</ele>
        <time>2021-02-20T11:34:23+01:00</time>
      </trkpt>
      <trkpt lat="47.17478" lon="-0.08321">
        <ele>27</ele>
        <time>2021-02-20T11:34:28+01:00</time>
      </trkpt>
      <trkpt lat="47.17543" lon="-0.08354">
        <ele>28</ele>
        <time>2021-02-20T11:34:33+01:00</time>
      </trkpt>
      <trkpt lat="47.17607" lon="-0.08392">
        <ele>29</ele>
        <time>2021-02-20T11:34:38+01:00</time>
      </trkpt>
      <trkpt lat="47.17646" lon="-0.08402">
        <ele>30</ele>
        <time>2021-02-20T11:34:43+01:00</time>
      </trkpt>
      <trkpt lat="47.17692" lon="-0.08403">
        <ele>29</ele>
        <time>2021-02-20T11:34:48+01:00</time>
      </trkpt>
      <trkpt lat="47.17781" lon="-0.08419">
        <ele>27</ele>
        <time>2021-02-20T11:34:53+01:00</time>
      </trkpt>
      <trkpt lat="47.17863" lon="-0.08432">
        <ele>29</ele>
        <time>2021-02-20T11:34:58+01:00</time>
      </trkpt>
      <trkpt lat="47.17968" lon="-0.08429">
        <ele>32</ele>
        <time>2021-02-20T11:35:03+01:00</time>
      </trkpt>
      <trkpt lat="47.18021" lon="-0.08424">
        <ele>31</ele>
        <time>2021-02-20T11:35:08+01:00</time>
      </trkpt>
      <trkpt lat="47.18058" lon="-0.08419">
        <ele>31</ele>
        <time>2021-02-20T11:35:13+01:00</time>
      </trkpt>
      <trkpt lat="47.18093" lon="-0.08419">
        <ele>30</ele>
        <time>2021-02-20T11:35:18+01:00</time>
      </trkpt>
      <trkpt lat="47.18207" lon="-0.08412">
        <ele>27</ele>
        <time>2021-02-20T11:35:23+01:00</time>
      </trkpt>
      <trkpt lat="47.18258" lon="-0.08407">
        <ele>27</ele>
        <time>2021-02-20T11:35:28+01:00</time>
      </trkpt>
      <trkpt lat="47.18294" lon="-0.08404">
        <ele>28</ele>
        <time>2021-02-20T11:35:33+01:00</time>
      </trkpt>
      <trkpt lat="47.18322" lon="-0.08405">
        <ele>29</ele>
        <time>2021-02-20T11:35:38+01:00</time>
      </trkpt>
      <trkpt lat="47.18335" lon="-0.08521">
        <ele>30</ele>
        <time>2021-02-20T11:35:43+01:00</time>
      </trkpt>
      <trkpt lat="47.1835" lon="-0.08666">
        <ele>30</ele>
        <time>2021-02-20T11:35:48+01:00</time>
      </trkpt>
      <trkpt lat="47.18353" lon="-0.08742">
        <ele>27</ele>
        <time>2021-02-20T11:35:53+01:00</time>
      </trkpt>
      <trkpt lat="47.18354" lon="-0.08812">
        <ele>28</ele>
        <time>2021-02-20T11:35:58+01:00</time>
      </trkpt>
      <trkpt lat="47.18357" lon="-0.08858">
        <ele>28</ele>
        <time>2021-02-20T11:36:03+01:00</time>
      </trkpt>
      <trkpt lat="47.18361" lon="-0.08904">
        <ele>27</ele>
        <time>2021-02-20T11:36:08+01:00</time>
      </trkpt>
      <trkpt lat="47.18374" lon="-0.0903">
        <ele>27</ele>
        <time>2021-02-20T11:36:13+01:00</time>
      </trkpt>
      <trkpt lat="47.18402" lon="-0.09023">
        <ele>27</ele>
        <time>2021-02-20T11:36:18+01:00</time>
      </trkpt>
      <trkpt lat="47.18469" lon="-0.08996">
        <ele>28</ele>
        <time>2021-02-20T11:36:23+01:00</time>
      </trkpt>
      <trkpt lat="47.18517" lon="-0.08978">
        <ele>28</ele>
        <time>2021-02-20T11:36:28+01:00</time>
      </trkpt>
      <trkpt lat="47.18566" lon="-0.08959">
        <ele>29</ele>
        <time>2021-02-20T11:36:33+01:00</time>
      </trkpt>
      <trkpt lat="47.18606" lon="-0.0896">
        <ele>29</ele>
        <time>2021-02-20T11:36:38+01:00</time>
      </trkpt>
      <trkpt lat="47.18734" lon="-0.0899">
        <ele>28</ele>
        <time>2021-02-20T11:36:43+01:00</time>
      </trkpt>
      <trkpt lat="47.18737" lon="-0.08992">
        <ele>28</ele>
        <time>2021-02-20T11:36:48+01:00</time>
      </trkpt>
      <trkpt lat="47.18774" lon="-0.09004">
        <ele>28</ele>
        <time>2021-02-20T11:36:53+01:00</time>
      </trkpt>
      <trkpt lat="47.18823" lon="-0.09023">
        <ele>27</ele>
        <time>2021-02-20T11:36:58+01:00</time>
      </trkpt>
      <trkpt lat="47.188" lon="-0.08991">
        <ele>27</ele>
        <time>2021-02-20T11:37:03+01:00</time>
      </trkpt>
      <trkpt lat="47.18784" lon="-0.08959">
        <ele>27</ele>
        <time>2021-02-20T11:37:08+01:00</time>
      </trkpt>
      <trkpt lat="47.1878" lon="-0.08939">
        <ele>27</ele>
        <time>2021-02-20T11:37:13+01:00</time>
      </trkpt>
      <trkpt lat="47.18779" lon="-0.08909">
        <ele>27</ele>
        <time>2021-02-20T11:37:18+01:00</time>
      </trkpt>
      <trkpt lat="47.18781" lon="-0.08873">
        <ele>27</ele>
        <time>2021-02-20T11:37:23+01:00</time>
      </trkpt>
      <trkpt lat="47.18787" lon="-0.08831">
        <ele>28</ele>
        <time>2021-02-20T11:37:28+01:00</time>
      </trkpt>
      <trkpt lat="47.1879" lon="-0.08804">
        <ele>28</ele>
        <time>2021-02-20T11:37:33+01:00</time>
      </trkpt>
      <trkpt lat="47.18789" lon="-0.08746">
        <ele>30</ele>
        <time>2021-02-20T11:37:38+01:00</time>
      </trkpt>
      <trkpt lat="47.18791" lon="-0.08726">
        <ele>30</ele>
        <time>2021-02-20T11:37:43+01:00</time>
      </trkpt>
      <trkpt lat="47.18801" lon="-0.08671">
        <ele>31</ele>
        <time>2021-02-20T11:37:48+01:00</time>
      </trkpt>
      <trkpt lat="47.18813" lon="-0.08618">
        <ele>30</ele>
        <time>2021-02-20T11:37:53+01:00</time>
      </trkpt>
      <trkpt lat="47.18828" lon="-0.08569">
        <ele>30</ele>
        <time>2021-02-20T11:37:58+01:00</time>
      </trkpt>
      <trkpt lat="47.18847" lon="-0.08536">
        <ele>30</ele>
        <time>2021-02-20T11:38:03+01:00</time>
      </trkpt>
      <trkpt lat="47.18886" lon="-0.08476">
        <ele>29</ele>
        <time>2021-02-20T11:38:08+01:00</time>
      </trkpt>
      <trkpt lat="47.1893" lon="-0.08411">
        <ele>29</ele>
        <time>2021-02-20T11:38:13+01:00</time>
      </trkpt>
      <trkpt lat="47.18953" lon="-0.08384">
        <ele>29</ele>
        <time>2021-02-20T11:38:18+01:00</time>
      </trkpt>
      <trkpt lat="47.18973" lon="-0.08366">
        <ele>29</ele>
        <time>2021-02-20T11:38:23+01:00</time>
      </trkpt>
      <trkpt lat="47.18993" lon="-0.08352">
        <ele>29</ele>
        <time>2021-02-20T11:38:28+01:00</time>
      </trkpt>
      <trkpt lat="47.19011" lon="-0.08348">
        <ele>29</ele>
        <time>2021-02-20T11:38:33+01:00</time>
      </trkpt>
      <trkpt lat="47.19044" lon="-0.08337">
        <ele>29</ele>
        <time>2021-02-20T11:38:38+01:00</time>
      </trkpt>
      <trkpt lat="47.19105" lon="-0.08323">
        <ele>29</ele>
        <time>2021-02-20T11:38:43+01:00</time>
      </trkpt>
      <trkpt lat="47.1915" lon="-0.08316">
        <ele>29</ele>
        <time>2021-02-20T11:38:48+01:00</time>
      </trkpt>
      <trkpt lat="47.19206" lon="-0.08321">
        <ele>28</ele>
        <time>2021-02-20T11:38:53+01:00</time>
      </trkpt>
      <trkpt lat="47.19268" lon="-0.08332">
        <ele>27</ele>
        <time>2021-02-20T11:38:58+01:00</time>
      </trkpt>
      <trkpt lat="47.19302" lon="-0.08328">
        <ele>27</ele>
        <time>2021-02-20T11:39:03+01:00</time>
      </trkpt>
      <trkpt lat="47.19324" lon="-0.08329">
        <ele>27</ele>
        <time>2021-02-20T11:39:08+01:00</time>
      </trkpt>
      <trkpt lat="47.19334" lon="-0.08339">
        <ele>27</ele>
        <time>2021-02-20T11:39:13+01:00</time>
      </trkpt>
      <trkpt lat="47.19344" lon="-0.0836">
        <ele>27</ele>
        <time>2021-02-20T11:39:18+01:00</time>
      </trkpt>
      <trkpt lat="47.19359" lon="-0.08395">
        <ele>26</ele>
        <time>2021-02-20T11:39:23+01:00</time>
      </trkpt>
      <trkpt lat="47.19379" lon="-0.08428">
        <ele>27</ele>
        <time>2021-02-20T11:39:28+01:00</time>
      </trkpt>
      <trkpt lat="47.1939" lon="-0.08435">
        <ele>27</ele>
        <time>2021-02-20T11:39:33+01:00</time>
      </trkpt>
      <trkpt lat="47.1941" lon="-0.0844">
        <ele>27</ele>
        <time>2021-02-20T11:39:38+01:00</time>
      </trkpt>
      <trkpt lat="47.19434" lon="-0.08432">
        <ele>27</ele>
        <time>2021-02-20T11:39:43+01:00</time>
      </trkpt>
      <trkpt lat="47.19451" lon="-0.08417">
        <ele>27</ele>
        <time>2021-02-20T11:39:48+01:00</time>
      </trkpt>
      <trkpt lat="47.1947" lon="-0.08395">
        <ele>28</ele>
        <time>2021-02-20T11:39:53+01:00</time>
      </trkpt>
      <trkpt lat="47.19508" lon="-0.08338">
        <ele>28</ele>
        <time>2021-02-20T11:39:58+01:00</time>
      </trkpt>
      <trkpt lat="47.19559" lon="-0.08265">
        <ele>27</ele>
        <time>2021-02-20T11:40:03+01:00</time>
      </trkpt>
      <trkpt lat="47.19581" lon="-0.08237">
        <ele>27</ele>
        <time>2021-02-20T11:40:08+01:00</time>
      </trkpt>
      <trkpt lat="47.19606" lon="-0.08218">
        <ele>27</ele>
        <time>2021-02-20T11:40:13+01:00</time>
      </trkpt>
      <trkpt lat="47.19625" lon="-0.08195">
        <ele>27</ele>
        <time>2021-02-20T11:40:18+01:00</time>
      </trkpt>
      <trkpt lat="47.1965" lon="-0.08147">
        <ele>27</ele>
        <time>2021-02-20T11:40:23+01:00</time>
      </trkpt>
      <trkpt lat="47.19672" lon="-0.08127">
        <ele>29</ele>
        <time>2021-02-20T11:40:28+01:00</time>
      </trkpt>
      <trkpt lat="47.19708" lon="-0.08097">
        <ele>32</ele>
        <time>2021-02-20T11:40:33+01:00</time>
      </trkpt>
      <trkpt lat="47.19731" lon="-0.08102">
        <ele>34</ele>
        <time>2021-02-20T11:40:38+01:00</time>
      </trkpt>
      <trkpt lat="47.19738" lon="-0.08083">
        <ele>34</ele>
        <time>2021-02-20T11:40:43+01:00</time>
      </trkpt>
      <trkpt lat="47.19748" lon="-0.08077">
        <ele>35</ele>
        <time>2021-02-20T11:40:48+01:00</time>
      </trkpt>
      <trkpt lat="47.19816" lon="-0.08132">
        <ele>35</ele>
        <time>2021-02-20T11:40:53+01:00</time>
      </trkpt>
      <trkpt lat="47.19859" lon="-0.08171">
        <ele>33</ele>
        <time>2021-02-20T11:40:58+01:00</time>
      </trkpt>
      <trkpt lat="47.19903" lon="-0.08228">
        <ele>29</ele>
        <time>2021-02-20T11:41:03+01:00</time>
      </trkpt>
      <trkpt lat="47.19913" lon="-0.08204">
        <ele>29</ele>
        <time>2021-02-20T11:41:08+01:00</time>
      </trkpt>
      <trkpt lat="47.19929" lon="-0.08186">
        <ele>30</ele>
        <time>2021-02-20T11:41:13+01:00</time>
      </trkpt>
      <trkpt lat="47.19944" lon="-0.08184">
        <ele>31</ele>
        <time>2021-02-20T11:41:18+01:00</time>
      </trkpt>
      <trkpt lat="47.19971" lon="-0.08182">
        <ele>32</ele>
        <time>2021-02-20T11:41:23+01:00</time>
      </trkpt>
      <trkpt lat="47.19989" lon="-0.08167">
        <ele>34</ele>
        <time>2021-02-20T11:41:28+01:00</time>
      </trkpt>
      <trkpt lat="47.19969" lon="-0.08154">
        <ele>35</ele>
        <time>2021-02-20T11:41:33+01:00</time>
      </trkpt>
      <trkpt lat="47.19954" lon="-0.08145">
        <ele>35</ele>
        <time>2021-02-20T11:41:38+01:00</time>
      </trkpt>
      <trkpt lat="47.19936" lon="-0.08126">
        <ele>37</ele>
        <time>2021-02-20T11:41:43+01:00</time>
      </trkpt>
      <trkpt lat="47.19923" lon="-0.08105">
        <ele>39</ele>
        <time>2021-02-20T11:41:48+01:00</time>
      </trkpt>
      <trkpt lat="47.19915" lon="-0.08084">
        <ele>42</ele>
        <time>2021-02-20T11:41:53+01:00</time>
      </trkpt>
      <trkpt lat="47.19912" lon="-0.08066">
        <ele>44</ele>
        <time>2021-02-20T11:41:58+01:00</time>
      </trkpt>
      <trkpt lat="47.19905" lon="-0.08033">
        <ele>47</ele>
        <time>2021-02-20T11:42:03+01:00</time>
      </trkpt>
      <trkpt lat="47.19888" lon="-0.08016">
        <ele>48</ele>
        <time>2021-02-20T11:42:08+01:00</time>
      </trkpt>
      <trkpt lat="47.19873" lon="-0.07994">
        <ele>49</ele>
        <time>2021-02-20T11:42:13+01:00</time>
      </trkpt>
      <trkpt lat="47.19862" lon="-0.07967">
        <ele>49</ele>
        <time>2021-02-20T11:42:18+01:00</time>
      </trkpt>
      <trkpt lat="47.19849" lon="-0.0796">
        <ele>48</ele>
        <time>2021-02-20T11:42:23+01:00</time>
      </trkpt>
      <trkpt lat="47.19822" lon="-0.07944">
        <ele>47</ele>
        <time>2021-02-20T11:42:28+01:00</time>
      </trkpt>
      <trkpt lat="47.1982" lon="-0.07948">
        <ele>47</ele>
        <time>2021-02-20T11:42:33+01:00</time>
      </trkpt>
      <trkpt lat="47.1981" lon="-0.07975">
        <ele>45</ele>
        <time>2021-02-20T11:42:38+01:00</time>
      </trkpt>
      <trkpt lat="47.19812" lon="-0.08008">
        <ele>43</ele>
        <time>2021-02-20T11:42:43+01:00</time>
      </trkpt>
      <trkpt lat="47.19796" lon="-0.08018">
        <ele>41</ele>
        <time>2021-02-20T11:42:48+01:00</time>
      </trkpt>
      <trkpt lat="47.19781" lon="-0.08018">
        <ele>40</ele>
        <time>2021-02-20T11:42:53+01:00</time>
      </trkpt>
      <trkpt lat="47.1977" lon="-0.08012">
        <ele>40</ele>
        <time>2021-02-20T11:42:58+01:00</time>
      </trkpt>
      <trkpt lat="47.19745" lon="-0.08005">
        <ele>38</ele>
        <time>2021-02-20T11:43:03+01:00</time>
      </trkpt>
      <trkpt lat="47.19732" lon="-0.07999">
        <ele>38</ele>
        <time>2021-02-20T11:43:08+01:00</time>
      </trkpt>
      <trkpt lat="47.19711" lon="-0.07998">
        <ele>37</ele>
        <time>2021-02-20T11:43:13+01:00</time>
      </trkpt>
      <trkpt lat="47.19695" lon="-0.07996">
        <ele>36</ele>
        <time>2021-02-20T11:43:18+01:00</time>
      </trkpt>
      <trkpt lat="47.19679" lon="-0.07997">
        <ele>35</ele>
        <time>2021-02-20T11:43:23+01:00</time>
      </trkpt>
      <trkpt lat="47.1966" lon="-0.08">
        <ele>34</ele>
        <time>2021-02-20T11:43:28+01:00</time>
      </trkpt>
      <trkpt lat="47.19646" lon="-0.08004">
        <ele>33</ele>
        <time>2021-02-20T11:43:33+01:00</time>
      </trkpt>
      <trkpt lat="47.19627" lon="-0.08">
        <ele>33</ele>
        <time>2021-02-20T11:43:38+01:00</time>
      </trkpt>
      <trkpt lat="47.19614" lon="-0.08002">
        <ele>33</ele>
        <time>2021-02-20T11:43:43+01:00</time>
      </trkpt>
      <trkpt lat="47.19602" lon="-0.08002">
        <ele>32</ele>
        <time>2021-02-20T11:43:48+01:00</time>
      </trkpt>
      <trkpt lat="47.19587" lon="-0.08004">
        <ele>32</ele>
        <time>2021-02-20T11:43:53+01:00</time>
      </trkpt>
      <trkpt lat="47.19574" lon="-0.08001">
        <ele>32</ele>
        <time>2021-02-20T11:43:58+01:00</time>
      </trkpt>
      <trkpt lat="47.19563" lon="-0.08002">
        <ele>31</ele>
        <time>2021-02-20T11:44:03+01:00</time>
      </trkpt>
      <trkpt lat="47.19551" lon="-0.08001">
        <ele>31</ele>
        <time>2021-02-20T11:44:08+01:00</time>
      </trkpt>
      <trkpt lat="47.19532" lon="-0.07999">
        <ele>31</ele>
        <time>2021-02-20T11:44:13+01:00</time>
      </trkpt>
      <trkpt lat="47.19515" lon="-0.07997">
        <ele>30</ele>
        <time>2021-02-20T11:44:18+01:00</time>
      </trkpt>
      <trkpt lat="47.19498" lon="-0.07994">
        <ele>30</ele>
        <time>2021-02-20T11:44:23+01:00</time>
      </trkpt>
      <trkpt lat="47.1948" lon="-0.07988">
        <ele>30</ele>
        <time>2021-02-20T11:44:28+01:00</time>
      </trkpt>
      <trkpt lat="47.19465" lon="-0.07975">
        <ele>30</ele>
        <time>2021-02-20T11:44:33+01:00</time>
      </trkpt>
      <trkpt lat="47.19453" lon="-0.07963">
        <ele>30</ele>
        <time>2021-02-20T11:44:38+01:00</time>
      </trkpt>
      <trkpt lat="47.1944" lon="-0.07946">
        <ele>30</ele>
        <time>2021-02-20T11:44:43+01:00</time>
      </trkpt>
      <trkpt lat="47.1943" lon="-0.07918">
        <ele>30</ele>
        <time>2021-02-20T11:44:48+01:00</time>
      </trkpt>
      <trkpt lat="47.19416" lon="-0.07901">
        <ele>31</ele>
        <time>2021-02-20T11:44:53+01:00</time>
      </trkpt>
      <trkpt lat="47.19393" lon="-0.079">
        <ele>30</ele>
        <time>2021-02-20T11:44:58+01:00</time>
      </trkpt>
      <trkpt lat="47.19377" lon="-0.07901">
        <ele>30</ele>
        <time>2021-02-20T11:45:03+01:00</time>
      </trkpt>
      <trkpt lat="47.19364" lon="-0.07891">
        <ele>29</ele>
        <time>2021-02-20T11:45:08+01:00</time>
      </trkpt>
      <trkpt lat="47.19355" lon="-0.07864">
        <ele>29</ele>
        <time>2021-02-20T11:45:13+01:00</time>
      </trkpt>
      <trkpt lat="47.19351" lon="-0.07848">
        <ele>28</ele>
        <time>2021-02-20T11:45:18+01:00</time>
      </trkpt>
      <trkpt lat="47.19342" lon="-0.07816">
        <ele>28</ele>
        <time>2021-02-20T11:45:23+01:00</time>
      </trkpt>
      <trkpt lat="47.19334" lon="-0.07792">
        <ele>28</ele>
        <time>2021-02-20T11:45:28+01:00</time>
      </trkpt>
      <trkpt lat="47.19315" lon="-0.078">
        <ele>28</ele>
        <time>2021-02-20T11:45:33+01:00</time>
      </trkpt>
      <trkpt lat="47.1931" lon="-0.07831">
        <ele>28</ele>
        <time>2021-02-20T11:45:38+01:00</time>
      </trkpt>
      <trkpt lat="47.19311" lon="-0.07891">
        <ele>29</ele>
        <time>2021-02-20T11:45:43+01:00</time>
      </trkpt>
      <trkpt lat="47.19311" lon="-0.07909">
        <ele>29</ele>
        <time>2021-02-20T11:45:48+01:00</time>
      </trkpt>
      <trkpt lat="47.19312" lon="-0.07957">
        <ele>29</ele>
        <time>2021-02-20T11:45:53+01:00</time>
      </trkpt>
      <trkpt lat="47.1931" lon="-0.08004">
        <ele>28</ele>
        <time>2021-02-20T11:45:58+01:00</time>
      </trkpt>
      <trkpt lat="47.193" lon="-0.08012">
        <ele>28</ele>
        <time>2021-02-20T11:46:03+01:00</time>
      </trkpt>
      <trkpt lat="47.1928" lon="-0.08016">
        <ele>28</ele>
        <time>2021-02-20T11:46:08+01:00</time>
      </trkpt>
      <trkpt lat="47.19266" lon="-0.08022">
        <ele>28</ele>
        <time>2021-02-20T11:46:13+01:00</time>
      </trkpt>
      <trkpt lat="47.19257" lon="-0.08025">
        <ele>28</ele>
        <time>2021-02-20T11:46:18+01:00</time>
      </trkpt>
      <trkpt lat="47.19241" lon="-0.08034">
        <ele>28</ele>
        <time>2021-02-20T11:46:23+01:00</time>
      </trkpt>
      <trkpt lat="47.19231" lon="-0.0804">
        <ele>28</ele>
        <time>2021-02-20T11:46:28+01:00</time>
      </trkpt>
      <trkpt lat="47.19217" lon="-0.08051">
        <ele>29</ele>
        <time>2021-02-20T11:46:33+01:00</time>
      </trkpt>
      <trkpt lat="47.19202" lon="-0.08062">
        <ele>29</ele>
        <time>2021-02-20T11:46:38+01:00</time>
      </trkpt>
      <trkpt lat="47.19177" lon="-0.0808">
        <ele>30</ele>
        <time>2021-02-20T11:46:43+01:00</time>
      </trkpt>
      <trkpt lat="47.19136" lon="-0.0811">
        <ele>30</ele>
        <time>2021-02-20T11:46:48+01:00</time>
      </trkpt>
      <trkpt lat="47.1909" lon="-0.08157">
        <ele>31</ele>
        <time>2021-02-20T11:46:53+01:00</time>
      </trkpt>
      <trkpt lat="47.19064" lon="-0.08183">
        <ele>31</ele>
        <time>2021-02-20T11:46:58+01:00</time>
      </trkpt>
      <trkpt lat="47.19034" lon="-0.08196">
        <ele>30</ele>
        <time>2021-02-20T11:47:03+01:00</time>
      </trkpt>
      <trkpt lat="47.18997" lon="-0.08213">
        <ele>30</ele>
        <time>2021-02-20T11:47:08+01:00</time>
      </trkpt>
      <trkpt lat="47.18959" lon="-0.08226">
        <ele>29</ele>
        <time>2021-02-20T11:47:13+01:00</time>
      </trkpt>
      <trkpt lat="47.18917" lon="-0.08239">
        <ele>29</ele>
        <time>2021-02-20T11:47:18+01:00</time>
      </trkpt>
      <trkpt lat="47.18892" lon="-0.08249">
        <ele>28</ele>
        <time>2021-02-20T11:47:23+01:00</time>
      </trkpt>
      <trkpt lat="47.1888" lon="-0.08254">
        <ele>28</ele>
        <time>2021-02-20T11:47:28+01:00</time>
      </trkpt>
      <trkpt lat="47.18868" lon="-0.0825">
        <ele>29</ele>
        <time>2021-02-20T11:47:33+01:00</time>
      </trkpt>
      <trkpt lat="47.18849" lon="-0.08249">
        <ele>29</ele>
        <time>2021-02-20T11:47:38+01:00</time>
      </trkpt>
      <trkpt lat="47.18825" lon="-0.0825">
        <ele>29</ele>
        <time>2021-02-20T11:47:43+01:00</time>
      </trkpt>
      <trkpt lat="47.1881" lon="-0.08248">
        <ele>30</ele>
        <time>2021-02-20T11:47:48+01:00</time>
      </trkpt>
      <trkpt lat="47.18782" lon="-0.08246">
        <ele>30</ele>
        <time>2021-02-20T11:47:53+01:00</time>
      </trkpt>
      <trkpt lat="47.18752" lon="-0.08245">
        <ele>31</ele>
        <time>2021-02-20T11:47:58+01:00</time>
      </trkpt>
      <trkpt lat="47.18706" lon="-0.08247">
        <ele>31</ele>
        <time>2021-02-20T11:48:03+01:00</time>
      </trkpt>
      <trkpt lat="47.18653" lon="-0.08243">
        <ele>30</ele>
        <time>2021-02-20T11:48:08+01:00</time>
      </trkpt>
      <trkpt lat="47.18555" lon="-0.08234">
        <ele>31</ele>
        <time>2021-02-20T11:48:13+01:00</time>
      </trkpt>
      <trkpt lat="47.18531" lon="-0.08233">
        <ele>31</ele>
        <time>2021-02-20T11:48:18+01:00</time>
      </trkpt>
      <trkpt lat="47.18506" lon="-0.08235">
        <ele>31</ele>
        <time>2021-02-20T11:48:23+01:00</time>
      </trkpt>
      <trkpt lat="47.18489" lon="-0.08242">
        <ele>31</ele>
        <time>2021-02-20T11:48:28+01:00</time>
      </trkpt>
      <trkpt lat="47.18469" lon="-0.08243">
        <ele>31</ele>
        <time>2021-02-20T11:48:33+01:00</time>
      </trkpt>
      <trkpt lat="47.18439" lon="-0.08246">
        <ele>32</ele>
        <time>2021-02-20T11:48:38+01:00</time>
      </trkpt>
      <trkpt lat="47.18406" lon="-0.08256">
        <ele>32</ele>
        <time>2021-02-20T11:48:43+01:00</time>
      </trkpt>
      <trkpt lat="47.18319" lon="-0.08284">
        <ele>31</ele>
        <time>2021-02-20T11:48:48+01:00</time>
      </trkpt>
      <trkpt lat="47.18254" lon="-0.08291">
        <ele>30</ele>
        <time>2021-02-20T11:48:53+01:00</time>
      </trkpt>
      <trkpt lat="47.18146" lon="-0.08289">
        <ele>29</ele>
        <time>2021-02-20T11:48:58+01:00</time>
      </trkpt>
      <trkpt lat="47.1804" lon="-0.08275">
        <ele>31</ele>
        <time>2021-02-20T11:49:03+01:00</time>
      </trkpt>
      <trkpt lat="47.18023" lon="-0.08271">
        <ele>31</ele>
        <time>2021-02-20T11:49:08+01:00</time>
      </trkpt>
      <trkpt lat="47.17997" lon="-0.0825">
        <ele>31</ele>
        <time>2021-02-20T11:49:13+01:00</time>
      </trkpt>
      <trkpt lat="47.17983" lon="-0.08237">
        <ele>30</ele>
        <time>2021-02-20T11:49:18+01:00</time>
      </trkpt>
      <trkpt lat="47.1794" lon="-0.08216">
        <ele>30</ele>
        <time>2021-02-20T11:49:23+01:00</time>
      </trkpt>
      <trkpt lat="47.17905" lon="-0.08199">
        <ele>30</ele>
        <time>2021-02-20T11:49:28+01:00</time>
      </trkpt>
      <trkpt lat="47.17882" lon="-0.08191">
        <ele>29</ele>
        <time>2021-02-20T11:49:33+01:00</time>
      </trkpt>
      <trkpt lat="47.17922" lon="-0.08049">
        <ele>27</ele>
        <time>2021-02-20T11:49:38+01:00</time>
      </trkpt>
      <trkpt lat="47.17992" lon="-0.07801">
        <ele>34</ele>
        <time>2021-02-20T11:49:43+01:00</time>
      </trkpt>
      <trkpt lat="47.18019" lon="-0.07708">
        <ele>37</ele>
        <time>2021-02-20T11:49:48+01:00</time>
      </trkpt>
      <trkpt lat="47.18077" lon="-0.07508">
        <ele>40</ele>
        <time>2021-02-20T11:49:53+01:00</time>
      </trkpt>
      <trkpt lat="47.18123" lon="-0.07343">
        <ele>38</ele>
        <time>2021-02-20T11:49:58+01:00</time>
      </trkpt>
      <trkpt lat="47.18166" lon="-0.07196">
        <ele>37</ele>
        <time>2021-02-20T11:50:03+01:00</time>
      </trkpt>
      <trkpt lat="47.18138" lon="-0.07199">
        <ele>37</ele>
        <time>2021-02-20T11:50:08+01:00</time>
      </trkpt>
      <trkpt lat="47.18112" lon="-0.07197">
        <ele>38</ele>
        <time>2021-02-20T11:50:13+01:00</time>
      </trkpt>
      <trkpt lat="47.18092" lon="-0.07194">
        <ele>38</ele>
        <time>2021-02-20T11:50:18+01:00</time>
      </trkpt>
      <trkpt lat="47.18065" lon="-0.07187">
        <ele>38</ele>
        <time>2021-02-20T11:50:23+01:00</time>
      </trkpt>
      <trkpt lat="47.18028" lon="-0.0717">
        <ele>39</ele>
        <time>2021-02-20T11:50:28+01:00</time>
      </trkpt>
      <trkpt lat="47.17968" lon="-0.07139">
        <ele>38</ele>
        <time>2021-02-20T11:50:33+01:00</time>
      </trkpt>
      <trkpt lat="47.17947" lon="-0.07131">
        <ele>38</ele>
        <time>2021-02-20T11:50:38+01:00</time>
      </trkpt>
      <trkpt lat="47.17928" lon="-0.07124">
        <ele>38</ele>
        <time>2021-02-20T11:50:43+01:00</time>
      </trkpt>
      <trkpt lat="47.17891" lon="-0.07113">
        <ele>39</ele>
        <time>2021-02-20T11:50:48+01:00</time>
      </trkpt>
      <trkpt lat="47.17825" lon="-0.07092">
        <ele>39</ele>
        <time>2021-02-20T11:50:53+01:00</time>
      </trkpt>
      <trkpt lat="47.17777" lon="-0.07076">
        <ele>41</ele>
        <time>2021-02-20T11:50:58+01:00</time>
      </trkpt>
      <trkpt lat="47.17769" lon="-0.07093">
        <ele>41</ele>
        <time>2021-02-20T11:51:03+01:00</time>
      </trkpt>
      <trkpt lat="47.17727" lon="-0.07208">
        <ele>43</ele>
        <time>2021-02-20T11:51:08+01:00</time>
      </trkpt>
      <trkpt lat="47.17674" lon="-0.07348">
        <ele>43</ele>
        <time>2021-02-20T11:51:13+01:00</time>
      </trkpt>
      <trkpt lat="47.1764" lon="-0.07438">
        <ele>41</ele>
        <time>2021-02-20T11:51:18+01:00</time>
      </trkpt>
      <trkpt lat="47.17629" lon="-0.07464">
        <ele>40</ele>
        <time>2021-02-20T11:51:23+01:00</time>
      </trkpt>
      <trkpt lat="47.17612" lon="-0.075">
        <ele>38</ele>
        <time>2021-02-20T11:51:28+01:00</time>
      </trkpt>
      <trkpt lat="47.17578" lon="-0.07569">
        <ele>34</ele>
        <time>2021-02-20T11:51:33+01:00</time>
      </trkpt>
      <trkpt lat="47.17514" lon="-0.07696">
        <ele>32</ele>
        <time>2021-02-20T11:51:38+01:00</time>
      </trkpt>
      <trkpt lat="47.17506" lon="-0.07695">
        <ele>32</ele>
        <time>2021-02-20T11:51:43+01:00</time>
      </trkpt>
      <trkpt lat="47.17438" lon="-0.07601">
        <ele>33</ele>
        <time>2021-02-20T11:51:48+01:00</time>
      </trkpt>
      <trkpt lat="47.17376" lon="-0.07519">
        <ele>33</ele>
        <time>2021-02-20T11:51:53+01:00</time>
      </trkpt>
      <trkpt lat="47.17299" lon="-0.07415">
        <ele>31</ele>
        <time>2021-02-20T11:51:58+01:00</time>
      </trkpt>
      <trkpt lat="47.17219" lon="-0.07308">
        <ele>33</ele>
        <time>2021-02-20T11:52:03+01:00</time>
      </trkpt>
      <trkpt lat="47.17166" lon="-0.07238">
        <ele>33</ele>
        <time>2021-02-20T11:52:08+01:00</time>
      </trkpt>
      <trkpt lat="47.17121" lon="-0.07177">
        <ele>35</ele>
        <time>2021-02-20T11:52:13+01:00</time>
      </trkpt>
      <trkpt lat="47.17078" lon="-0.0712">
        <ele>37</ele>
        <time>2021-02-20T11:52:18+01:00</time>
      </trkpt>
      <trkpt lat="47.17008" lon="-0.07026">
        <ele>39</ele>
        <time>2021-02-20T11:52:23+01:00</time>
      </trkpt>
      <trkpt lat="47.16983" lon="-0.07086">
        <ele>36</ele>
        <time>2021-02-20T11:52:28+01:00</time>
      </trkpt>
      <trkpt lat="47.16958" lon="-0.07138">
        <ele>34</ele>
        <time>2021-02-20T11:52:33+01:00</time>
      </trkpt>
      <trkpt lat="47.16924" lon="-0.07189">
        <ele>31</ele>
        <time>2021-02-20T11:52:38+01:00</time>
      </trkpt>
      <trkpt lat="47.16918" lon="-0.07208">
        <ele>31</ele>
        <time>2021-02-20T11:52:43+01:00</time>
      </trkpt>
      <trkpt lat="47.16912" lon="-0.07231">
        <ele>30</ele>
        <time>2021-02-20T11:52:48+01:00</time>
      </trkpt>
      <trkpt lat="47.1691" lon="-0.07272">
        <ele>29</ele>
        <time>2021-02-20T11:52:53+01:00</time>
      </trkpt>
      <trkpt lat="47.16902" lon="-0.07299">
        <ele>28</ele>
        <time>2021-02-20T11:52:58+01:00</time>
      </trkpt>
      <trkpt lat="47.16885" lon="-0.07334">
        <ele>28</ele>
        <time>2021-02-20T11:53:03+01:00</time>
      </trkpt>
      <trkpt lat="47.16859" lon="-0.07361">
        <ele>29</ele>
        <time>2021-02-20T11:53:08+01:00</time>
      </trkpt>
    </trkseg>
  </trk>
</gpx>